Terminal Aerodrome Forecast
Issued by NWS

Home | Current Version | Previous Version | Text Only | Print | Product List | Glossary On
Versions: 1 2 3 4 5 6 7 8 9 10 11 12 13 14 15 16 17 18 19 20
000
FTUS41 KPHI 291129
TAFMIV
TAF
KMIV 291129Z 2912/3012 06012G22KT 5SM -RA BR SCT009 OVC015
      TEMPO 2912/2916 BKN008 OVC015
     FM292100 07015G26KT P6SM -SHRA OVC006=

USA.gov is the U.S. government's official web portal to all federal, state and local government web resources and services.